createdAt,value
2023-02-11T00:01:42.056Z,100311.00
2023-02-11T00:04:10.662Z,100304.00
2023-02-11T00:06:39.285Z,100296.00
2023-02-11T00:09:08.379Z,100281.00
2023-02-11T00:11:37.244Z,100289.00
2023-02-11T00:14:08.958Z,100283.00
2023-02-11T00:16:39.221Z,100270.00
2023-02-11T00:19:08.144Z,100276.00
2023-02-11T00:21:36.885Z,100273.00
2023-02-11T00:24:06.171Z,100278.00
2023-02-11T00:26:36.828Z,100264.00
2023-02-11T00:29:06.753Z,100258.00
2023-02-11T00:31:35.766Z,100267.00
2023-02-11T00:34:08.740Z,100259.00
2023-02-11T00:36:37.415Z,100272.00
2023-02-11T00:39:06.528Z,100257.00
2023-02-11T00:41:37.879Z,100246.00
2023-02-11T00:44:06.804Z,100254.00
2023-02-11T00:46:35.530Z,100256.00
2023-02-11T00:49:04.297Z,100250.00
2023-02-11T00:51:34.735Z,100244.00
2023-02-11T00:54:06.591Z,100236.00
2023-02-11T00:56:36.150Z,100230.00
2023-02-11T00:59:04.795Z,100229.00
2023-02-11T01:01:33.508Z,100224.00
2023-02-11T01:04:02.209Z,100232.00
2023-02-11T01:06:30.914Z,100226.00
2023-02-11T01:09:01.422Z,100214.00
2023-02-11T01:11:31.060Z,100221.00
2023-02-11T01:13:59.724Z,100215.00
2023-02-11T01:16:28.360Z,100214.00
2023-02-11T01:18:57.102Z,100205.00
2023-02-11T01:21:26.123Z,100204.00
2023-02-11T01:23:54.790Z,100194.00
2023-02-11T01:26:24.809Z,100201.00
2023-02-11T01:28:53.489Z,100208.00
2023-02-11T01:31:22.161Z,100194.00
2023-02-11T01:33:50.822Z,100200.00
2023-02-11T01:36:19.496Z,100200.00
2023-02-11T01:38:49.952Z,100193.00
2023-02-11T01:41:21.153Z,100192.00
2023-02-11T01:43:51.972Z,100190.00
2023-02-11T01:46:33.585Z,100178.00
2023-02-11T01:49:08.099Z,100179.00
2023-02-11T01:51:43.177Z,100166.00
2023-02-11T01:54:29.922Z,100177.00
2023-02-11T01:57:18.835Z,100161.00
2023-02-11T01:59:58.129Z,100160.00
2023-02-11T02:02:34.935Z,100153.00
2023-02-11T02:05:11.346Z,100154.00
2023-02-11T02:07:51.524Z,100146.00
2023-02-11T02:10:25.955Z,100147.00
2023-02-11T02:12:54.967Z,100141.00
2023-02-11T02:15:33.013Z,100138.00
2023-02-11T02:18:26.787Z,100129.00
2023-02-11T02:22:04.399Z,100124.00
2023-02-11T02:25:19.987Z,100121.00
2023-02-11T02:27:57.511Z,100111.00
2023-02-11T02:31:02.351Z,100112.00
2023-02-11T02:33:53.022Z,100113.00
2023-02-11T02:36:31.308Z,100102.00
2023-02-11T02:39:07.857Z,100094.00
2023-02-11T02:41:39.071Z,100102.00
2023-02-11T02:44:10.204Z,100098.00
2023-02-11T02:46:39.418Z,100097.00
2023-02-11T02:49:15.229Z,100115.00
2023-02-11T02:52:12.086Z,100104.00
2023-02-11T02:55:17.630Z,100100.00
2023-02-11T02:58:14.305Z,100103.00
2023-02-11T03:00:55.199Z,100104.00
2023-02-11T03:03:37.845Z,100101.00
2023-02-11T03:06:16.467Z,100104.00
2023-02-11T03:08:52.358Z,100096.00
2023-02-11T03:11:24.350Z,100095.00
2023-02-11T03:13:57.288Z,100113.00
2023-02-11T03:16:29.078Z,100096.00
2023-02-11T03:19:05.038Z,100091.00
2023-02-11T03:21:40.534Z,100081.00
2023-02-11T03:24:14.751Z,100087.00
2023-02-11T03:26:50.909Z,100076.00
2023-02-11T03:29:35.002Z,100070.00
2023-02-11T03:32:16.289Z,100060.00
2023-02-11T03:34:54.075Z,100061.00
2023-02-11T03:37:30.205Z,100059.00
2023-02-11T03:40:06.363Z,100054.00
2023-02-11T03:42:45.060Z,100058.00
2023-02-11T03:45:20.394Z,100058.00
2023-02-11T03:47:56.886Z,100048.00
2023-02-11T03:50:27.287Z,100041.00
2023-02-11T03:53:00.490Z,100038.00
2023-02-11T03:55:31.873Z,100029.00
2023-02-11T03:58:00.514Z,100034.00
2023-02-11T04:00:33.466Z,100025.00
2023-02-11T04:03:02.355Z,100023.00
2023-02-11T04:05:31.597Z,100012.00
2023-02-11T04:08:01.699Z,100011.00
2023-02-11T04:10:30.733Z,100011.00
2023-02-11T04:12:59.570Z,100022.00
2023-02-11T04:15:28.301Z,100002.00
2023-02-11T04:17:57.022Z,100003.00
2023-02-11T04:20:25.680Z,100008.00
2023-02-11T04:22:54.470Z,99992.00
2023-02-11T04:25:25.985Z,99992.00
2023-02-11T04:27:54.708Z,99993.00
2023-02-11T04:30:23.800Z,99983.00
2023-02-11T04:32:54.290Z,99972.00
2023-02-11T04:35:23.115Z,99968.00
2023-02-11T04:37:51.823Z,99971.00
2023-02-11T04:40:20.709Z,99973.00
2023-02-11T04:42:50.728Z,99968.00
2023-02-11T04:45:19.589Z,99972.00
2023-02-11T04:47:48.261Z,99961.00
2023-02-11T04:50:17.048Z,99968.00
2023-02-11T04:52:45.624Z,99968.00
2023-02-11T04:55:14.752Z,99955.00
2023-02-11T04:57:43.422Z,99944.00
2023-02-11T05:00:15.361Z,99944.00
2023-02-11T05:02:44.136Z,99942.00
2023-02-11T05:05:12.836Z,99930.00
2023-02-11T05:07:41.490Z,99936.00
2023-02-11T05:10:10.652Z,99923.00
2023-02-11T05:12:39.372Z,99926.00
2023-02-11T05:15:09.035Z,99913.00
2023-02-11T05:17:39.094Z,99912.00
2023-02-11T05:20:09.055Z,99915.00
2023-02-11T05:22:37.724Z,99906.00
2023-02-11T05:25:07.381Z,99910.00
2023-02-11T05:27:36.330Z,99899.00
2023-02-11T05:30:05.569Z,99891.00
2023-02-11T05:32:34.397Z,99898.00
2023-02-11T05:35:04.487Z,99889.00
2023-02-11T05:37:33.353Z,99886.00
2023-02-11T05:40:02.115Z,99887.00
2023-02-11T05:42:31.721Z,99884.00
2023-02-11T05:45:00.355Z,99880.00
2023-02-11T05:47:29.296Z,99876.00
2023-02-11T05:49:58.025Z,99880.00
2023-02-11T05:52:28.033Z,99869.00
2023-02-11T05:54:56.650Z,99877.00
2023-02-11T05:57:25.361Z,99874.00
2023-02-11T05:59:54.053Z,99857.00
2023-02-11T06:02:22.724Z,99863.00
2023-02-11T06:04:51.505Z,99861.00
2023-02-11T06:07:20.790Z,99859.00
2023-02-11T06:09:51.245Z,99860.00
2023-02-11T06:12:19.930Z,99855.00
2023-02-11T06:14:48.566Z,99852.00
2023-02-11T06:17:17.476Z,99833.00
2023-02-11T06:19:46.077Z,99839.00
2023-02-11T06:22:14.699Z,99844.00
2023-02-11T06:25:00.413Z,99839.00
2023-02-11T06:27:33.486Z,99846.00
2023-02-11T06:30:02.200Z,99839.00
2023-02-11T06:32:49.072Z,99831.00
2023-02-11T06:35:19.062Z,99835.00
2023-02-11T06:37:52.186Z,99819.00
2023-02-11T06:40:21.070Z,99821.00
2023-02-11T06:42:51.133Z,99819.00
2023-02-11T06:45:20.666Z,99812.00
2023-02-11T06:47:49.621Z,99810.00
2023-02-11T06:50:18.337Z,99796.00
2023-02-11T06:52:47.018Z,99800.00
2023-02-11T06:55:16.349Z,99795.00
2023-02-11T06:57:44.938Z,99794.00
2023-02-11T07:00:16.543Z,99788.00
2023-02-11T07:02:45.302Z,99780.00
2023-02-11T07:05:13.945Z,99782.00
2023-02-11T07:07:42.619Z,99780.00
2023-02-11T07:10:11.473Z,99767.00
2023-02-11T07:12:41.663Z,99771.00
2023-02-11T07:15:10.700Z,99763.00
2023-02-11T07:17:40.723Z,99762.00
2023-02-11T07:20:12.499Z,99760.00
2023-02-11T07:22:41.231Z,99756.00
2023-02-11T07:25:10.227Z,99753.00
2023-02-11T07:27:38.944Z,99751.00
2023-02-11T07:30:09.325Z,99746.00
2023-02-11T07:32:38.232Z,99743.00
2023-02-11T07:35:09.014Z,99745.00
2023-02-11T07:37:37.954Z,99738.00
2023-02-11T07:40:07.702Z,99729.00
2023-02-11T07:42:36.768Z,99738.00
2023-02-11T07:45:05.828Z,99736.00
2023-02-11T07:47:35.932Z,99738.00
2023-02-11T07:50:04.605Z,99728.00
2023-02-11T07:52:34.705Z,99727.00
2023-02-11T07:55:04.947Z,99731.00
2023-02-11T07:57:33.727Z,99723.00
2023-02-11T08:00:02.423Z,99729.00
2023-02-11T08:02:39.799Z,99724.00
2023-02-11T08:05:09.083Z,99723.00
2023-02-11T08:07:39.068Z,99716.00
2023-02-11T08:10:08.363Z,99718.00
2023-02-11T08:12:38.326Z,99715.00
2023-02-11T08:15:07.520Z,99719.00
2023-02-11T08:17:37.055Z,99704.00
2023-02-11T08:20:06.780Z,99716.00
2023-02-11T08:22:36.127Z,99724.00
2023-02-11T08:25:07.250Z,99719.00
2023-02-11T08:27:35.889Z,99706.00
2023-02-11T08:30:04.788Z,99710.00
2023-02-11T08:32:36.316Z,99712.00
2023-02-11T08:35:05.204Z,99696.00
2023-02-11T08:37:34.609Z,99688.00
2023-02-11T08:40:03.307Z,99685.00
2023-02-11T08:42:33.376Z,99682.00
2023-02-11T08:45:02.053Z,99692.00
2023-02-11T08:47:32.668Z,99685.00
2023-02-11T08:50:01.298Z,99684.00
2023-02-11T08:52:29.928Z,99684.00
2023-02-11T08:54:58.885Z,99679.00
2023-02-11T08:57:27.820Z,99674.00
2023-02-11T08:59:58.514Z,99683.00
2023-02-11T09:02:27.223Z,99687.00
2023-02-11T09:04:55.992Z,99689.00
2023-02-11T09:07:26.048Z,99681.00
2023-02-11T09:09:54.894Z,99675.00
2023-02-11T09:12:23.570Z,99682.00
2023-02-11T09:14:52.228Z,99678.00
2023-02-11T09:17:22.256Z,99682.00
2023-02-11T09:19:50.886Z,99677.00
2023-02-11T09:22:19.518Z,99680.00
2023-02-11T09:24:48.175Z,99672.00
2023-02-11T09:27:16.814Z,99668.00
2023-02-11T09:29:45.507Z,99670.00
2023-02-11T09:32:16.181Z,99679.00
2023-02-11T09:34:46.283Z,99677.00
2023-02-11T09:37:16.297Z,99674.00
2023-02-11T09:40:00.288Z,99678.00
2023-02-11T09:42:47.308Z,99679.00
2023-02-11T09:45:22.033Z,99682.00
2023-02-11T09:47:58.111Z,99671.00
2023-02-11T09:50:33.897Z,99676.00
2023-02-11T09:53:07.944Z,99675.00
2023-02-11T09:55:42.772Z,99660.00
2023-02-11T09:58:18.452Z,99668.00
2023-02-11T10:01:01.493Z,99672.00
2023-02-11T10:04:06.634Z,99670.00
2023-02-11T10:06:45.435Z,99665.00
2023-02-11T10:09:51.149Z,99670.00
2023-02-11T10:12:41.633Z,99667.00
2023-02-11T10:15:25.887Z,99658.00
2023-02-11T10:18:32.926Z,99660.00
2023-02-11T10:21:20.364Z,99669.00
2023-02-11T10:23:57.662Z,99673.00
2023-02-11T10:26:33.290Z,99675.00
2023-02-11T10:29:27.460Z,99683.00
2023-02-11T10:31:58.313Z,99675.00
2023-02-11T10:34:28.801Z,99673.00
2023-02-11T10:36:57.508Z,99675.00
2023-02-11T10:39:29.360Z,99676.00
2023-02-11T10:42:06.768Z,99677.00
2023-02-11T10:44:41.200Z,99681.00
2023-02-11T10:47:19.209Z,99679.00
2023-02-11T10:49:49.100Z,99679.00
2023-02-11T10:52:24.341Z,99667.00
2023-02-11T10:55:20.866Z,99684.00
2023-02-11T10:57:59.020Z,99676.00
2023-02-11T11:00:52.586Z,99684.00
2023-02-11T11:03:27.986Z,99692.00
2023-02-11T11:06:03.315Z,99692.00
2023-02-11T11:08:47.504Z,99702.00
2023-02-11T11:11:19.975Z,99706.00
2023-02-11T11:13:59.253Z,99709.00
2023-02-11T11:16:30.016Z,99713.00
2023-02-11T11:19:21.553Z,99722.00
2023-02-11T11:21:53.224Z,99713.00
2023-02-11T11:24:27.885Z,99709.00
2023-02-11T11:27:06.383Z,99710.00
2023-02-11T11:29:39.753Z,99705.00
2023-02-11T11:32:19.528Z,99721.00
2023-02-11T11:34:54.120Z,99718.00
2023-02-11T11:37:28.678Z,99729.00
2023-02-11T11:40:12.850Z,99738.00
2023-02-11T11:42:43.632Z,99747.00
2023-02-11T11:45:27.862Z,99752.00
2023-02-11T11:48:02.774Z,99757.00
2023-02-11T11:50:38.981Z,99761.00
2023-02-11T11:53:16.771Z,99768.00
2023-02-11T11:55:50.852Z,99776.00
2023-02-11T11:58:24.960Z,99775.00
2023-02-11T12:01:16.940Z,99782.00
2023-02-11T12:04:25.577Z,99789.00
2023-02-11T12:07:13.037Z,99793.00
2023-02-11T12:10:08.422Z,99805.00
2023-02-11T12:12:53.434Z,99799.00
2023-02-11T12:15:37.916Z,99826.00
2023-02-11T12:18:36.291Z,99832.00
2023-02-11T12:21:36.035Z,99844.00
2023-02-11T12:24:33.690Z,99862.00
2023-02-11T12:27:09.834Z,99865.00
2023-02-11T12:29:55.427Z,99866.00
2023-02-11T12:32:36.533Z,99862.00
2023-02-11T12:35:39.752Z,99881.00
2023-02-11T12:38:47.210Z,99883.00
2023-02-11T12:41:51.755Z,99896.00
2023-02-11T12:44:32.466Z,99905.00
2023-02-11T12:47:21.693Z,99910.00
2023-02-11T12:50:18.525Z,99914.00
2023-02-11T12:53:11.548Z,99913.00
2023-02-11T12:55:46.317Z,99926.00
2023-02-11T12:58:23.838Z,99930.00
2023-02-11T13:01:04.505Z,99927.00
2023-02-11T13:03:42.808Z,99935.00
2023-02-11T13:06:17.890Z,99953.00
2023-02-11T13:08:50.617Z,99963.00
2023-02-11T13:11:25.673Z,99956.00
2023-02-11T13:14:01.806Z,99965.00
2023-02-11T13:16:39.434Z,99964.00
2023-02-11T13:19:22.566Z,99974.00
2023-02-11T13:22:14.768Z,99973.00
2023-02-11T13:24:49.477Z,99972.00
2023-02-11T13:27:33.871Z,99982.00
2023-02-11T13:30:28.668Z,99988.00
2023-02-11T13:33:22.222Z,100006.00
2023-02-11T13:36:20.220Z,100021.00
2023-02-11T13:39:01.947Z,100036.00
2023-02-11T13:41:40.328Z,100029.00
2023-02-11T13:44:27.142Z,100036.00
2023-02-11T13:47:01.563Z,100033.00
2023-02-11T13:49:40.565Z,100050.00
2023-02-11T13:52:25.075Z,100042.00
2023-02-11T13:54:59.033Z,100054.00
2023-02-11T13:57:34.156Z,100067.00
2023-02-11T14:00:09.629Z,100063.00
2023-02-11T14:02:57.060Z,100068.00
2023-02-11T14:05:48.139Z,100079.00
2023-02-11T14:08:43.933Z,100088.00
2023-02-11T14:11:47.566Z,100081.00
2023-02-11T14:14:21.944Z,100092.00
2023-02-11T14:17:30.995Z,100093.00
2023-02-11T14:20:02.345Z,100105.00
2023-02-11T14:22:48.927Z,100107.00
2023-02-11T14:25:24.933Z,100120.00
2023-02-11T14:28:01.844Z,100123.00
2023-02-11T14:30:45.145Z,100133.00
2023-02-11T14:33:54.339Z,100135.00
2023-02-11T14:36:55.973Z,100148.00
2023-02-11T14:39:45.374Z,100141.00
2023-02-11T14:42:20.993Z,100145.00
2023-02-11T14:44:53.854Z,100155.00
2023-02-11T14:47:30.000Z,100160.00
2023-02-11T14:49:58.986Z,100165.00
2023-02-11T14:52:31.355Z,100161.00
2023-02-11T14:55:19.869Z,100164.00
2023-02-11T14:57:50.951Z,100182.00
2023-02-11T15:00:24.833Z,100196.00
2023-02-11T15:02:53.872Z,100198.00
2023-02-11T15:05:26.785Z,100203.00
2023-02-11T15:07:59.325Z,100214.00
2023-02-11T15:10:34.207Z,100221.00
2023-02-11T15:13:05.885Z,100237.00
2023-02-11T15:15:37.858Z,100246.00
2023-02-11T15:18:09.634Z,100248.00
2023-02-11T15:20:38.496Z,100243.00
2023-02-11T15:23:20.064Z,100260.00
2023-02-11T15:25:52.954Z,100263.00
2023-02-11T15:28:25.227Z,100266.00
2023-02-11T15:31:05.546Z,100276.00
2023-02-11T15:33:34.795Z,100282.00
2023-02-11T15:36:05.044Z,100296.00
2023-02-11T15:38:33.915Z,100293.00
2023-02-11T15:41:07.545Z,100302.00
2023-02-11T15:43:44.643Z,100311.00
2023-02-11T15:46:20.137Z,100321.00
2023-02-11T15:48:52.464Z,100325.00
2023-02-11T15:51:29.568Z,100341.00
2023-02-11T15:54:01.371Z,100335.00
2023-02-11T15:56:37.669Z,100356.00
2023-02-11T15:59:17.421Z,100339.00
2023-02-11T16:01:49.374Z,100353.00
2023-02-11T16:04:20.949Z,100361.00
2023-02-11T16:06:51.290Z,100361.00
2023-02-11T16:09:31.466Z,100383.00
2023-02-11T16:12:03.873Z,100392.00
2023-02-11T16:14:37.121Z,100413.00
2023-02-11T16:17:12.410Z,100421.00
2023-02-11T16:19:47.720Z,100416.00
2023-02-11T16:22:20.867Z,100437.00
2023-02-11T16:24:52.569Z,100428.00
2023-02-11T16:27:25.477Z,100432.00
2023-02-11T16:29:54.410Z,100435.00
2023-02-11T16:32:27.088Z,100423.00
2023-02-11T16:34:58.272Z,100428.00
2023-02-11T16:37:27.936Z,100440.00
2023-02-11T16:39:58.222Z,100442.00
2023-02-11T16:42:27.201Z,100450.00
2023-02-11T16:44:55.796Z,100457.00
2023-02-11T16:47:31.163Z,100469.00
2023-02-11T16:50:01.904Z,100480.00
2023-02-11T16:52:32.561Z,100469.00
2023-02-11T16:55:01.542Z,100487.00
2023-02-11T16:57:32.689Z,100508.00
2023-02-11T17:00:01.504Z,100516.00
2023-02-11T17:02:38.325Z,100534.00
2023-02-11T17:05:19.087Z,100539.00
2023-02-11T17:07:48.232Z,100542.00
2023-02-11T17:10:18.359Z,100551.00
2023-02-11T17:12:47.970Z,100564.00
2023-02-11T17:15:16.968Z,100558.00
2023-02-11T17:17:47.003Z,100567.00
2023-02-11T17:20:17.375Z,100574.00
2023-02-11T17:22:46.022Z,100579.00
2023-02-11T17:25:14.662Z,100579.00
2023-02-11T17:27:43.596Z,100588.00
2023-02-11T17:30:15.312Z,100597.00
2023-02-11T17:32:43.985Z,100611.00
2023-02-11T17:35:14.077Z,100621.00
2023-02-11T17:37:42.729Z,100625.00
2023-02-11T17:40:13.495Z,100623.00
2023-02-11T17:42:42.778Z,100620.00
2023-02-11T17:45:13.227Z,100615.00
2023-02-11T17:47:41.825Z,100635.00
2023-02-11T17:50:11.626Z,100654.00
2023-02-11T17:52:41.819Z,100639.00
2023-02-11T17:55:10.468Z,100654.00
2023-02-11T17:57:39.658Z,100661.00
2023-02-11T18:00:10.924Z,100674.00
2023-02-11T18:02:42.269Z,100669.00
2023-02-11T18:05:11.536Z,100678.00
2023-02-11T18:07:41.944Z,100679.00
2023-02-11T18:10:12.310Z,100679.00
2023-02-11T18:12:41.058Z,100686.00
2023-02-11T18:15:10.834Z,100689.00
2023-02-11T18:17:39.483Z,100700.00
2023-02-11T18:20:10.096Z,100692.00
2023-02-11T18:22:40.973Z,100713.00
2023-02-11T18:25:15.760Z,100725.00
2023-02-11T18:27:44.731Z,100722.00
2023-02-11T18:30:19.460Z,100723.00
2023-02-11T18:32:48.154Z,100746.00
2023-02-11T18:35:17.408Z,100731.00
2023-02-11T18:37:46.029Z,100745.00
2023-02-11T18:40:17.034Z,100753.00
2023-02-11T18:42:47.640Z,100753.00
2023-02-11T18:45:16.276Z,100768.00
2023-02-11T18:47:45.036Z,100775.00
2023-02-11T18:50:15.949Z,100789.00
2023-02-11T18:52:44.579Z,100801.00
2023-02-11T18:55:13.565Z,100783.00
2023-02-11T18:57:44.147Z,100770.00
2023-02-11T19:00:14.689Z,100793.00
2023-02-11T19:02:43.278Z,100802.00
2023-02-11T19:05:12.488Z,100804.00
2023-02-11T19:07:41.186Z,100799.00
2023-02-11T19:10:13.816Z,100800.00
2023-02-11T19:12:44.081Z,100822.00
2023-02-11T19:15:12.785Z,100823.00
2023-02-11T19:17:41.570Z,100821.00
2023-02-11T19:20:11.753Z,100813.00
2023-02-11T19:22:40.362Z,100823.00
2023-02-11T19:25:09.627Z,100834.00
2023-02-11T19:27:41.360Z,100832.00
2023-02-11T19:30:13.020Z,100852.00
2023-02-11T19:32:41.702Z,100845.00
2023-02-11T19:35:10.299Z,100848.00
2023-02-11T19:37:39.052Z,100857.00
2023-02-11T19:40:09.582Z,100853.00
2023-02-11T19:42:38.230Z,100865.00
2023-02-11T19:45:07.654Z,100862.00
2023-02-11T19:47:37.711Z,100861.00
2023-02-11T19:50:07.938Z,100863.00
2023-02-11T19:52:39.284Z,100860.00
2023-02-11T19:55:09.129Z,100850.00
2023-02-11T19:57:38.501Z,100861.00
2023-02-11T20:00:11.165Z,100875.00
2023-02-11T20:02:44.418Z,100869.00
2023-02-11T20:05:13.064Z,100896.00
2023-02-11T20:07:41.886Z,100895.00
2023-02-11T20:10:12.061Z,100900.00
2023-02-11T20:12:40.882Z,100903.00
2023-02-11T20:15:11.099Z,100901.00
2023-02-11T20:17:39.841Z,100910.00
2023-02-11T20:20:11.479Z,100923.00
2023-02-11T20:22:40.261Z,100931.00
2023-02-11T20:25:10.944Z,100936.00
2023-02-11T20:27:39.743Z,100944.00
2023-02-11T20:30:10.839Z,100949.00
2023-02-11T20:32:39.500Z,100958.00
2023-02-11T20:35:11.039Z,100951.00
2023-02-11T20:37:42.288Z,100955.00
2023-02-11T20:40:13.885Z,100969.00
2023-02-11T20:42:42.543Z,100958.00
2023-02-11T20:45:11.456Z,100966.00
2023-02-11T20:47:40.099Z,100971.00
2023-02-11T20:50:11.903Z,100983.00
2023-02-11T20:52:40.507Z,100993.00
2023-02-11T20:55:09.596Z,100996.00
2023-02-11T20:57:38.337Z,100990.00
2023-02-11T21:00:09.739Z,101001.00
2023-02-11T21:02:38.509Z,101008.00
2023-02-11T21:05:09.260Z,101002.00
2023-02-11T21:07:39.170Z,101007.00
2023-02-11T21:10:09.718Z,101015.00
2023-02-11T21:12:38.394Z,100997.00
2023-02-11T21:15:09.720Z,101000.00
2023-02-11T21:17:38.460Z,101000.00
2023-02-11T21:20:10.207Z,100988.00
2023-02-11T21:22:38.871Z,100999.00
2023-02-11T21:25:08.654Z,101010.00
2023-02-11T21:27:37.312Z,101019.00
2023-02-11T21:30:07.339Z,101017.00
2023-02-11T21:32:36.066Z,101016.00
2023-02-11T21:35:04.806Z,101023.00
2023-02-11T21:37:34.969Z,101029.00
2023-02-11T21:40:03.818Z,101036.00
2023-02-11T21:42:32.434Z,101040.00
2023-02-11T21:45:01.012Z,101055.00
2023-02-11T21:47:29.820Z,101037.00
2023-02-11T21:49:58.468Z,101055.00
2023-02-11T21:52:27.126Z,101039.00
2023-02-11T21:54:57.134Z,101043.00
2023-02-11T21:57:25.901Z,101048.00
2023-02-11T21:59:54.552Z,101050.00
2023-02-11T22:02:23.210Z,101057.00
2023-02-11T22:04:52.166Z,101047.00
2023-02-11T22:07:22.770Z,101043.00
2023-02-11T22:09:52.330Z,101051.00
2023-02-11T22:12:22.442Z,101049.00
2023-02-11T22:14:51.029Z,101067.00
2023-02-11T22:17:19.808Z,101072.00
2023-02-11T22:19:48.419Z,101073.00
2023-02-11T22:22:19.678Z,101082.00
2023-02-11T22:24:48.556Z,101067.00
2023-02-11T22:27:20.248Z,101075.00
2023-02-11T22:29:50.334Z,101065.00
2023-02-11T22:32:19.027Z,101084.00
2023-02-11T22:34:47.697Z,101094.00
2023-02-11T22:37:16.342Z,101106.00
2023-02-11T22:39:45.007Z,101106.00
2023-02-11T22:42:13.653Z,101101.00
2023-02-11T22:44:42.349Z,101095.00
2023-02-11T22:47:12.353Z,101110.00
2023-02-11T22:49:41.447Z,101118.00
2023-02-11T22:52:10.001Z,101131.00
2023-02-11T22:54:38.996Z,101132.00
2023-02-11T22:57:07.670Z,101131.00
2023-02-11T22:59:36.250Z,101119.00
2023-02-11T23:02:04.988Z,101153.00
2023-02-11T23:04:35.267Z,101139.00
2023-02-11T23:07:04.066Z,101152.00
2023-02-11T23:09:32.775Z,101157.00
2023-02-11T23:12:01.387Z,101182.00
2023-02-11T23:14:30.042Z,101178.00
2023-02-11T23:16:58.737Z,101176.00
2023-02-11T23:19:27.414Z,101177.00
2023-02-11T23:21:57.504Z,101162.00
2023-02-11T23:24:26.150Z,101187.00
2023-02-11T23:26:54.756Z,101193.00
2023-02-11T23:29:23.334Z,101173.00
2023-02-11T23:31:52.098Z,101195.00
2023-02-11T23:34:25.260Z,101181.00
2023-02-11T23:36:54.572Z,101177.00
2023-02-11T23:39:24.631Z,101188.00
2023-02-11T23:41:58.896Z,101180.00
2023-02-11T23:44:27.789Z,101183.00
2023-02-11T23:46:56.385Z,101196.00
2023-02-11T23:49:25.260Z,101199.00
2023-02-11T23:51:53.903Z,101211.00
2023-02-11T23:54:23.983Z,101226.00
2023-02-11T23:56:52.663Z,101215.00
2023-02-11T23:59:21.358Z,101216.00
